sensor_id;sensor_type;location;lat;lon;timestamp;P1;durP1;ratioP1;P2;durP2;ratioP2
64799;SDS011;51233;51.982;4.594;2023-02-10T00:00:37;7.90;;;4.55;;
64799;SDS011;51233;51.982;4.594;2023-02-10T00:03:37;8.87;;;4.43;;
64799;SDS011;51233;51.982;4.594;2023-02-10T00:06:38;11.03;;;4.83;;
64799;SDS011;51233;51.982;4.594;2023-02-10T00:09:40;11.65;;;5.45;;
64799;SDS011;51233;51.982;4.594;2023-02-10T00:12:40;10.82;;;5.82;;
64799;SDS011;51233;51.982;4.594;2023-02-10T00:15:42;10.15;;;5.85;;
64799;SDS011;51233;51.982;4.594;2023-02-10T00:18:42;10.60;;;6.35;;
64799;SDS011;51233;51.982;4.594;2023-02-10T00:21:45;10.73;;;5.95;;
64799;SDS011;51233;51.982;4.594;2023-02-10T00:24:45;9.80;;;6.30;;
64799;SDS011;51233;51.982;4.594;2023-02-10T00:27:46;11.23;;;6.55;;
64799;SDS011;51233;51.982;4.594;2023-02-10T00:30:46;9.93;;;6.07;;
64799;SDS011;51233;51.982;4.594;2023-02-10T00:33:49;8.57;;;5.63;;
64799;SDS011;51233;51.982;4.594;2023-02-10T00:36:49;11.35;;;5.63;;
64799;SDS011;51233;51.982;4.594;2023-02-10T00:39:53;11.18;;;6.00;;
64799;SDS011;51233;51.982;4.594;2023-02-10T00:42:55;9.45;;;5.68;;
64799;SDS011;51233;51.982;4.594;2023-02-10T00:45:55;11.32;;;6.10;;
64799;SDS011;51233;51.982;4.594;2023-02-10T00:48:55;11.60;;;6.87;;
64799;SDS011;51233;51.982;4.594;2023-02-10T00:51:55;12.00;;;7.87;;
64799;SDS011;51233;51.982;4.594;2023-02-10T00:54:57;11.18;;;6.80;;
64799;SDS011;51233;51.982;4.594;2023-02-10T00:57:57;13.55;;;8.52;;
64799;SDS011;51233;51.982;4.594;2023-02-10T01:00:57;14.45;;;8.48;;
64799;SDS011;51233;51.982;4.594;2023-02-10T01:03:57;18.38;;;9.75;;
64799;SDS011;51233;51.982;4.594;2023-02-10T01:06:57;16.90;;;10.13;;
64799;SDS011;51233;51.982;4.594;2023-02-10T01:09:58;14.48;;;8.90;;
64799;SDS011;51233;51.982;4.594;2023-02-10T01:12:58;14.30;;;9.48;;
64799;SDS011;51233;51.982;4.594;2023-02-10T01:15:58;11.63;;;8.57;;
64799;SDS011;51233;51.982;4.594;2023-02-10T01:18:59;11.85;;;9.30;;
64799;SDS011;51233;51.982;4.594;2023-02-10T01:22:00;12.90;;;9.18;;
64799;SDS011;51233;51.982;4.594;2023-02-10T01:25:00;13.13;;;9.85;;
64799;SDS011;51233;51.982;4.594;2023-02-10T01:28:01;14.52;;;9.55;;
64799;SDS011;51233;51.982;4.594;2023-02-10T01:31:08;14.70;;;9.15;;
64799;SDS011;51233;51.982;4.594;2023-02-10T01:34:09;14.48;;;10.00;;
64799;SDS011;51233;51.982;4.594;2023-02-10T01:37:09;15.57;;;9.18;;
64799;SDS011;51233;51.982;4.594;2023-02-10T01:40:13;14.90;;;8.83;;
64799;SDS011;51233;51.982;4.594;2023-02-10T01:43:13;14.60;;;9.23;;
64799;SDS011;51233;51.982;4.594;2023-02-10T01:46:14;12.32;;;9.18;;
64799;SDS011;51233;51.982;4.594;2023-02-10T01:49:15;13.18;;;9.00;;
64799;SDS011;51233;51.982;4.594;2023-02-10T01:55:18;13.23;;;8.57;;
64799;SDS011;51233;51.982;4.594;2023-02-10T01:58:21;12.15;;;9.00;;
64799;SDS011;51233;51.982;4.594;2023-02-10T02:01:23;13.57;;;9.35;;
64799;SDS011;51233;51.982;4.594;2023-02-10T02:04:23;13.43;;;9.38;;
64799;SDS011;51233;51.982;4.594;2023-02-10T02:07:25;13.18;;;9.45;;
64799;SDS011;51233;51.982;4.594;2023-02-10T02:10:29;11.65;;;8.52;;
64799;SDS011;51233;51.982;4.594;2023-02-10T02:16:55;17.58;;;9.13;;
64799;SDS011;51233;51.982;4.594;2023-02-10T02:23:36;12.20;;;8.98;;
64799;SDS011;51233;51.982;4.594;2023-02-10T02:32:47;13.50;;;8.60;;
64799;SDS011;51233;51.982;4.594;2023-02-10T02:35:53;10.27;;;7.63;;
64799;SDS011;51233;51.982;4.594;2023-02-10T02:39:02;13.38;;;8.63;;
64799;SDS011;51233;51.982;4.594;2023-02-10T02:42:17;12.85;;;8.15;;
64799;SDS011;51233;51.982;4.594;2023-02-10T02:45:19;13.10;;;8.02;;
64799;SDS011;51233;51.982;4.594;2023-02-10T02:54:44;10.82;;;7.88;;
64799;SDS011;51233;51.982;4.594;2023-02-10T02:57:47;12.85;;;7.32;;
64799;SDS011;51233;51.982;4.594;2023-02-10T03:03:48;16.13;;;9.77;;
64799;SDS011;51233;51.982;4.594;2023-02-10T03:06:48;14.15;;;9.05;;
64799;SDS011;51233;51.982;4.594;2023-02-10T03:09:48;12.40;;;8.93;;
64799;SDS011;51233;51.982;4.594;2023-02-10T03:12:49;14.82;;;9.57;;
64799;SDS011;51233;51.982;4.594;2023-02-10T03:15:50;15.38;;;8.88;;
64799;SDS011;51233;51.982;4.594;2023-02-10T03:18:50;14.80;;;9.43;;
64799;SDS011;51233;51.982;4.594;2023-02-10T03:21:50;16.00;;;9.80;;
64799;SDS011;51233;51.982;4.594;2023-02-10T03:24:51;12.48;;;9.57;;
64799;SDS011;51233;51.982;4.594;2023-02-10T03:27:51;15.80;;;10.13;;
64799;SDS011;51233;51.982;4.594;2023-02-10T03:30:51;15.23;;;10.25;;
64799;SDS011;51233;51.982;4.594;2023-02-10T03:33:52;13.23;;;9.80;;
64799;SDS011;51233;51.982;4.594;2023-02-10T03:36:52;14.63;;;10.13;;
64799;SDS011;51233;51.982;4.594;2023-02-10T03:39:52;14.80;;;10.68;;
64799;SDS011;51233;51.982;4.594;2023-02-10T03:42:53;15.10;;;10.80;;
64799;SDS011;51233;51.982;4.594;2023-02-10T03:46:00;12.68;;;10.52;;
64799;SDS011;51233;51.982;4.594;2023-02-10T03:49:00;14.02;;;10.43;;
64799;SDS011;51233;51.982;4.594;2023-02-10T03:52:00;11.80;;;10.05;;
64799;SDS011;51233;51.982;4.594;2023-02-10T03:55:01;17.20;;;11.45;;
64799;SDS011;51233;51.982;4.594;2023-02-10T03:58:01;15.00;;;10.27;;
64799;SDS011;51233;51.982;4.594;2023-02-10T04:01:08;15.95;;;11.82;;
64799;SDS011;51233;51.982;4.594;2023-02-10T04:04:08;14.77;;;11.57;;
64799;SDS011;51233;51.982;4.594;2023-02-10T04:07:08;16.10;;;11.93;;
64799;SDS011;51233;51.982;4.594;2023-02-10T04:10:08;13.00;;;10.88;;
64799;SDS011;51233;51.982;4.594;2023-02-10T04:13:09;15.25;;;11.65;;
64799;SDS011;51233;51.982;4.594;2023-02-10T04:16:10;17.27;;;12.75;;
64799;SDS011;51233;51.982;4.594;2023-02-10T04:19:11;18.30;;;12.20;;
64799;SDS011;51233;51.982;4.594;2023-02-10T04:22:11;15.45;;;12.07;;
64799;SDS011;51233;51.982;4.594;2023-02-10T04:25:11;15.43;;;11.93;;
64799;SDS011;51233;51.982;4.594;2023-02-10T04:28:11;16.23;;;12.65;;
64799;SDS011;51233;51.982;4.594;2023-02-10T04:31:11;17.73;;;12.83;;
64799;SDS011;51233;51.982;4.594;2023-02-10T04:34:20;18.00;;;13.48;;
64799;SDS011;51233;51.982;4.594;2023-02-10T04:37:21;17.20;;;12.80;;
64799;SDS011;51233;51.982;4.594;2023-02-10T04:40:21;19.50;;;14.25;;
64799;SDS011;51233;51.982;4.594;2023-02-10T04:43:21;19.85;;;13.55;;
64799;SDS011;51233;51.982;4.594;2023-02-10T04:46:24;18.30;;;13.70;;
64799;SDS011;51233;51.982;4.594;2023-02-10T04:49:25;21.85;;;14.82;;
64799;SDS011;51233;51.982;4.594;2023-02-10T04:52:25;18.63;;;14.10;;
64799;SDS011;51233;51.982;4.594;2023-02-10T04:55:25;18.10;;;14.02;;
64799;SDS011;51233;51.982;4.594;2023-02-10T04:58:25;20.00;;;14.90;;
64799;SDS011;51233;51.982;4.594;2023-02-10T05:01:29;22.35;;;15.10;;
64799;SDS011;51233;51.982;4.594;2023-02-10T05:04:35;21.33;;;15.02;;
64799;SDS011;51233;51.982;4.594;2023-02-10T05:07:35;20.88;;;14.43;;
64799;SDS011;51233;51.982;4.594;2023-02-10T05:10:35;17.50;;;13.10;;
64799;SDS011;51233;51.982;4.594;2023-02-10T05:13:36;20.50;;;14.23;;
64799;SDS011;51233;51.982;4.594;2023-02-10T05:16:36;21.37;;;14.63;;
64799;SDS011;51233;51.982;4.594;2023-02-10T05:19:36;18.90;;;14.15;;
64799;SDS011;51233;51.982;4.594;2023-02-10T05:22:37;21.58;;;13.95;;
64799;SDS011;51233;51.982;4.594;2023-02-10T05:25:37;22.73;;;14.50;;
64799;SDS011;51233;51.982;4.594;2023-02-10T05:28:37;20.13;;;13.13;;
64799;SDS011;51233;51.982;4.594;2023-02-10T05:31:38;18.73;;;14.15;;
64799;SDS011;51233;51.982;4.594;2023-02-10T05:34:38;20.13;;;14.13;;
64799;SDS011;51233;51.982;4.594;2023-02-10T05:37:41;18.48;;;14.00;;
64799;SDS011;51233;51.982;4.594;2023-02-10T05:40:41;18.70;;;13.63;;
64799;SDS011;51233;51.982;4.594;2023-02-10T05:43:41;19.03;;;14.03;;
64799;SDS011;51233;51.982;4.594;2023-02-10T05:46:42;17.60;;;13.20;;
64799;SDS011;51233;51.982;4.594;2023-02-10T05:49:43;15.10;;;12.60;;
64799;SDS011;51233;51.982;4.594;2023-02-10T05:52:43;17.85;;;13.70;;
64799;SDS011;51233;51.982;4.594;2023-02-10T05:55:44;13.30;;;11.82;;
64799;SDS011;51233;51.982;4.594;2023-02-10T05:58:45;13.82;;;10.63;;
64799;SDS011;51233;51.982;4.594;2023-02-10T06:01:45;11.93;;;9.82;;
64799;SDS011;51233;51.982;4.594;2023-02-10T06:04:48;14.07;;;8.70;;
64799;SDS011;51233;51.982;4.594;2023-02-10T06:07:49;9.52;;;8.52;;
64799;SDS011;51233;51.982;4.594;2023-02-10T06:10:49;8.52;;;7.72;;
64799;SDS011;51233;51.982;4.594;2023-02-10T06:13:49;9.48;;;7.60;;
64799;SDS011;51233;51.982;4.594;2023-02-10T06:16:49;9.40;;;7.55;;
64799;SDS011;51233;51.982;4.594;2023-02-10T06:19:49;7.93;;;7.07;;
64799;SDS011;51233;51.982;4.594;2023-02-10T06:22:50;7.50;;;6.43;;
64799;SDS011;51233;51.982;4.594;2023-02-10T06:25:50;7.32;;;6.65;;
64799;SDS011;51233;51.982;4.594;2023-02-10T06:28:54;7.22;;;6.40;;
64799;SDS011;51233;51.982;4.594;2023-02-10T06:31:54;6.55;;;5.90;;
64799;SDS011;51233;51.982;4.594;2023-02-10T06:34:55;6.37;;;5.70;;
64799;SDS011;51233;51.982;4.594;2023-02-10T06:37:55;6.40;;;5.45;;
64799;SDS011;51233;51.982;4.594;2023-02-10T06:40:55;9.20;;;5.97;;
64799;SDS011;51233;51.982;4.594;2023-02-10T06:43:55;6.30;;;5.78;;
64799;SDS011;51233;51.982;4.594;2023-02-10T06:46:55;6.33;;;5.83;;
64799;SDS011;51233;51.982;4.594;2023-02-10T06:49:56;5.63;;;5.13;;
64799;SDS011;51233;51.982;4.594;2023-02-10T06:52:56;6.68;;;5.97;;
64799;SDS011;51233;51.982;4.594;2023-02-10T06:55:57;6.60;;;5.83;;
64799;SDS011;51233;51.982;4.594;2023-02-10T06:58:57;6.93;;;6.33;;
64799;SDS011;51233;51.982;4.594;2023-02-10T07:01:57;7.30;;;6.60;;
64799;SDS011;51233;51.982;4.594;2023-02-10T07:05:00;6.95;;;6.35;;
64799;SDS011;51233;51.982;4.594;2023-02-10T07:08:06;10.95;;;6.25;;
64799;SDS011;51233;51.982;4.594;2023-02-10T07:11:06;9.20;;;6.53;;
64799;SDS011;51233;51.982;4.594;2023-02-10T07:14:06;7.43;;;6.72;;
64799;SDS011;51233;51.982;4.594;2023-02-10T07:17:09;7.78;;;6.97;;
64799;SDS011;51233;51.982;4.594;2023-02-10T07:20:09;9.77;;;7.50;;
64799;SDS011;51233;51.982;4.594;2023-02-10T07:23:13;9.10;;;7.10;;
64799;SDS011;51233;51.982;4.594;2023-02-10T07:26:13;8.63;;;7.82;;
64799;SDS011;51233;51.982;4.594;2023-02-10T07:29:17;8.40;;;7.50;;
64799;SDS011;51233;51.982;4.594;2023-02-10T07:32:18;8.30;;;7.47;;
64799;SDS011;51233;51.982;4.594;2023-02-10T07:35:18;7.68;;;6.97;;
64799;SDS011;51233;51.982;4.594;2023-02-10T07:38:18;8.88;;;7.97;;
64799;SDS011;51233;51.982;4.594;2023-02-10T07:41:18;9.13;;;7.30;;
64799;SDS011;51233;51.982;4.594;2023-02-10T07:44:18;8.63;;;7.72;;
64799;SDS011;51233;51.982;4.594;2023-02-10T07:47:20;9.45;;;7.72;;
64799;SDS011;51233;51.982;4.594;2023-02-10T07:50:24;8.98;;;8.07;;
64799;SDS011;51233;51.982;4.594;2023-02-10T07:53:24;10.13;;;8.40;;
64799;SDS011;51233;51.982;4.594;2023-02-10T07:56:24;9.40;;;8.40;;
64799;SDS011;51233;51.982;4.594;2023-02-10T07:59:24;9.38;;;8.57;;
64799;SDS011;51233;51.982;4.594;2023-02-10T08:02:25;9.80;;;8.70;;
64799;SDS011;51233;51.982;4.594;2023-02-10T08:05:25;9.13;;;7.67;;
64799;SDS011;51233;51.982;4.594;2023-02-10T08:08:29;10.23;;;9.20;;
64799;SDS011;51233;51.982;4.594;2023-02-10T08:11:30;10.35;;;9.25;;
64799;SDS011;51233;51.982;4.594;2023-02-10T08:14:30;12.18;;;9.57;;
64799;SDS011;51233;51.982;4.594;2023-02-10T08:17:30;11.73;;;10.52;;
64799;SDS011;51233;51.982;4.594;2023-02-10T08:20:30;9.77;;;8.77;;
64799;SDS011;51233;51.982;4.594;2023-02-10T08:23:31;11.30;;;10.20;;
64799;SDS011;51233;51.982;4.594;2023-02-10T08:26:31;12.30;;;9.57;;
64799;SDS011;51233;51.982;4.594;2023-02-10T08:29:31;11.77;;;10.57;;
64799;SDS011;51233;51.982;4.594;2023-02-10T08:32:31;11.43;;;10.25;;
64799;SDS011;51233;51.982;4.594;2023-02-10T08:35:32;12.27;;;10.85;;
64799;SDS011;51233;51.982;4.594;2023-02-10T08:38:32;10.15;;;9.07;;
64799;SDS011;51233;51.982;4.594;2023-02-10T08:41:32;12.50;;;11.20;;
64799;SDS011;51233;51.982;4.594;2023-02-10T08:44:32;16.60;;;11.52;;
64799;SDS011;51233;51.982;4.594;2023-02-10T08:47:33;12.48;;;11.27;;
64799;SDS011;51233;51.982;4.594;2023-02-10T08:50:36;12.60;;;11.15;;
64799;SDS011;51233;51.982;4.594;2023-02-10T08:53:36;13.93;;;12.48;;
64799;SDS011;51233;51.982;4.594;2023-02-10T08:56:36;14.00;;;12.60;;
64799;SDS011;51233;51.982;4.594;2023-02-10T08:59:37;14.17;;;12.03;;
64799;SDS011;51233;51.982;4.594;2023-02-10T09:02:37;12.80;;;11.45;;
64799;SDS011;51233;51.982;4.594;2023-02-10T09:05:37;12.45;;;10.90;;
64799;SDS011;51233;51.982;4.594;2023-02-10T09:08:37;13.80;;;12.37;;
64799;SDS011;51233;51.982;4.594;2023-02-10T09:11:38;12.43;;;11.13;;
64799;SDS011;51233;51.982;4.594;2023-02-10T09:14:38;13.70;;;12.40;;
64799;SDS011;51233;51.982;4.594;2023-02-10T09:17:39;12.30;;;11.00;;
64799;SDS011;51233;51.982;4.594;2023-02-10T09:20:39;12.43;;;11.32;;
64799;SDS011;51233;51.982;4.594;2023-02-10T09:23:39;12.17;;;10.93;;
64799;SDS011;51233;51.982;4.594;2023-02-10T09:26:39;13.07;;;11.20;;
64799;SDS011;51233;51.982;4.594;2023-02-10T09:29:39;12.83;;;11.63;;
64799;SDS011;51233;51.982;4.594;2023-02-10T09:32:40;11.20;;;10.10;;
64799;SDS011;51233;51.982;4.594;2023-02-10T09:35:40;14.50;;;12.23;;
64799;SDS011;51233;51.982;4.594;2023-02-10T09:38:43;12.75;;;11.45;;
64799;SDS011;51233;51.982;4.594;2023-02-10T09:41:45;13.45;;;12.00;;
64799;SDS011;51233;51.982;4.594;2023-02-10T09:44:52;12.77;;;11.45;;
64799;SDS011;51233;51.982;4.594;2023-02-10T09:47:56;12.45;;;11.30;;
64799;SDS011;51233;51.982;4.594;2023-02-10T09:51:11;11.82;;;10.65;;
64799;SDS011;51233;51.982;4.594;2023-02-10T09:54:15;14.05;;;10.88;;
64799;SDS011;51233;51.982;4.594;2023-02-10T09:57:21;12.25;;;11.02;;
64799;SDS011;51233;51.982;4.594;2023-02-10T10:00:33;12.23;;;10.18;;
64799;SDS011;51233;51.982;4.594;2023-02-10T10:03:36;10.73;;;9.63;;
64799;SDS011;51233;51.982;4.594;2023-02-10T10:06:39;14.18;;;10.68;;
64799;SDS011;51233;51.982;4.594;2023-02-10T10:09:40;13.98;;;10.95;;
64799;SDS011;51233;51.982;4.594;2023-02-10T10:12:41;12.90;;;11.45;;
64799;SDS011;51233;51.982;4.594;2023-02-10T10:15:44;15.40;;;11.32;;
64799;SDS011;51233;51.982;4.594;2023-02-10T10:22:03;13.20;;;11.25;;
64799;SDS011;51233;51.982;4.594;2023-02-10T10:31:39;15.52;;;10.32;;
64799;SDS011;51233;51.982;4.594;2023-02-10T10:34:51;13.88;;;11.70;;
64799;SDS011;51233;51.982;4.594;2023-02-10T10:37:52;15.15;;;12.23;;
64799;SDS011;51233;51.982;4.594;2023-02-10T10:40:54;13.73;;;11.55;;
64799;SDS011;51233;51.982;4.594;2023-02-10T10:43:56;15.98;;;11.55;;
64799;SDS011;51233;51.982;4.594;2023-02-10T10:47:01;13.85;;;10.70;;
64799;SDS011;51233;51.982;4.594;2023-02-10T10:50:15;16.10;;;11.85;;
64799;SDS011;51233;51.982;4.594;2023-02-10T10:53:20;15.38;;;13.13;;
64799;SDS011;51233;51.982;4.594;2023-02-10T10:59:27;15.53;;;11.83;;
64799;SDS011;51233;51.982;4.594;2023-02-10T11:02:28;15.18;;;11.55;;
64799;SDS011;51233;51.982;4.594;2023-02-10T11:05:32;15.60;;;11.77;;
64799;SDS011;51233;51.982;4.594;2023-02-10T11:08:35;15.57;;;12.55;;
64799;SDS011;51233;51.982;4.594;2023-02-10T11:11:40;17.42;;;13.50;;
64799;SDS011;51233;51.982;4.594;2023-02-10T11:14:41;17.75;;;13.07;;
64799;SDS011;51233;51.982;4.594;2023-02-10T11:20:50;19.23;;;13.23;;
64799;SDS011;51233;51.982;4.594;2023-02-10T11:23:52;16.25;;;13.30;;
64799;SDS011;51233;51.982;4.594;2023-02-10T11:26:53;14.00;;;12.23;;
64799;SDS011;51233;51.982;4.594;2023-02-10T11:29:57;17.20;;;13.50;;
64799;SDS011;51233;51.982;4.594;2023-02-10T11:32:58;20.48;;;14.77;;
64799;SDS011;51233;51.982;4.594;2023-02-10T11:36:09;19.25;;;14.57;;
64799;SDS011;51233;51.982;4.594;2023-02-10T11:39:16;18.42;;;15.60;;
64799;SDS011;51233;51.982;4.594;2023-02-10T11:45:22;19.20;;;14.10;;
64799;SDS011;51233;51.982;4.594;2023-02-10T11:48:23;20.40;;;14.40;;
64799;SDS011;51233;51.982;4.594;2023-02-10T11:51:24;21.73;;;14.95;;
64799;SDS011;51233;51.982;4.594;2023-02-10T11:54:24;18.37;;;13.40;;
64799;SDS011;51233;51.982;4.594;2023-02-10T11:57:28;21.87;;;14.93;;
64799;SDS011;51233;51.982;4.594;2023-02-10T12:00:50;21.52;;;15.85;;
64799;SDS011;51233;51.982;4.594;2023-02-10T12:04:00;21.17;;;15.15;;
64799;SDS011;51233;51.982;4.594;2023-02-10T12:07:24;17.23;;;13.27;;
64799;SDS011;51233;51.982;4.594;2023-02-10T12:13:54;22.70;;;16.35;;
64799;SDS011;51233;51.982;4.594;2023-02-10T12:16:59;22.58;;;16.38;;
64799;SDS011;51233;51.982;4.594;2023-02-10T12:20:06;22.92;;;14.52;;
64799;SDS011;51233;51.982;4.594;2023-02-10T12:26:23;21.65;;;15.18;;
64799;SDS011;51233;51.982;4.594;2023-02-10T12:32:46;18.65;;;11.70;;
64799;SDS011;51233;51.982;4.594;2023-02-10T12:42:25;24.02;;;15.35;;
64799;SDS011;51233;51.982;4.594;2023-02-10T12:48:36;22.17;;;15.30;;
64799;SDS011;51233;51.982;4.594;2023-02-10T12:58:15;22.05;;;16.00;;
64799;SDS011;51233;51.982;4.594;2023-02-10T13:01:35;27.20;;;16.80;;
64799;SDS011;51233;51.982;4.594;2023-02-10T13:04:41;22.58;;;16.88;;
64799;SDS011;51233;51.982;4.594;2023-02-10T13:07:46;23.15;;;16.63;;
64799;SDS011;51233;51.982;4.594;2023-02-10T13:10:48;28.17;;;15.27;;
64799;SDS011;51233;51.982;4.594;2023-02-10T13:13:50;25.95;;;16.40;;
64799;SDS011;51233;51.982;4.594;2023-02-10T13:16:51;20.90;;;15.93;;
64799;SDS011;51233;51.982;4.594;2023-02-10T13:20:00;19.67;;;13.18;;
64799;SDS011;51233;51.982;4.594;2023-02-10T13:32:27;19.70;;;11.27;;
64799;SDS011;51233;51.982;4.594;2023-02-10T13:35:29;17.00;;;13.18;;
64799;SDS011;51233;51.982;4.594;2023-02-10T13:38:31;19.38;;;13.18;;
64799;SDS011;51233;51.982;4.594;2023-02-10T13:41:33;24.70;;;13.60;;
64799;SDS011;51233;51.982;4.594;2023-02-10T13:44:45;18.17;;;14.52;;
64799;SDS011;51233;51.982;4.594;2023-02-10T13:50:47;24.83;;;14.57;;
64799;SDS011;51233;51.982;4.594;2023-02-10T13:53:48;17.85;;;12.55;;
64799;SDS011;51233;51.982;4.594;2023-02-10T13:59:50;22.38;;;14.00;;
64799;SDS011;51233;51.982;4.594;2023-02-10T14:06:08;20.38;;;15.18;;
64799;SDS011;51233;51.982;4.594;2023-02-10T14:09:18;20.08;;;15.55;;
64799;SDS011;51233;51.982;4.594;2023-02-10T14:12:23;21.05;;;14.57;;
64799;SDS011;51233;51.982;4.594;2023-02-10T14:15:24;22.92;;;16.13;;
64799;SDS011;51233;51.982;4.594;2023-02-10T14:18:26;26.13;;;17.85;;
64799;SDS011;51233;51.982;4.594;2023-02-10T14:21:27;28.85;;;19.98;;
64799;SDS011;51233;51.982;4.594;2023-02-10T14:24:42;27.40;;;18.00;;
64799;SDS011;51233;51.982;4.594;2023-02-10T14:28:17;27.50;;;19.70;;
64799;SDS011;51233;51.982;4.594;2023-02-10T14:31:29;27.90;;;19.95;;
64799;SDS011;51233;51.982;4.594;2023-02-10T14:34:33;33.25;;;22.23;;
64799;SDS011;51233;51.982;4.594;2023-02-10T14:37:34;29.15;;;21.75;;
64799;SDS011;51233;51.982;4.594;2023-02-10T14:40:35;32.20;;;22.45;;
64799;SDS011;51233;51.982;4.594;2023-02-10T14:43:36;35.57;;;22.57;;
64799;SDS011;51233;51.982;4.594;2023-02-10T14:46:39;30.52;;;21.73;;
64799;SDS011;51233;51.982;4.594;2023-02-10T14:49:40;27.42;;;20.60;;
64799;SDS011;51233;51.982;4.594;2023-02-10T14:52:46;27.23;;;20.37;;
64799;SDS011;51233;51.982;4.594;2023-02-10T14:55:47;31.20;;;19.83;;
64799;SDS011;51233;51.982;4.594;2023-02-10T14:58:52;30.58;;;22.45;;
64799;SDS011;51233;51.982;4.594;2023-02-10T15:01:52;28.60;;;21.87;;
64799;SDS011;51233;51.982;4.594;2023-02-10T15:04:56;27.25;;;20.42;;
64799;SDS011;51233;51.982;4.594;2023-02-10T15:07:59;28.38;;;21.20;;
64799;SDS011;51233;51.982;4.594;2023-02-10T15:11:00;31.75;;;21.13;;
64799;SDS011;51233;51.982;4.594;2023-02-10T15:14:02;30.35;;;22.33;;
64799;SDS011;51233;51.982;4.594;2023-02-10T15:17:03;29.63;;;22.10;;
64799;SDS011;51233;51.982;4.594;2023-02-10T15:23:15;32.10;;;21.13;;
64799;SDS011;51233;51.982;4.594;2023-02-10T15:26:16;28.23;;;19.88;;
64799;SDS011;51233;51.982;4.594;2023-02-10T15:29:18;29.73;;;20.77;;
64799;SDS011;51233;51.982;4.594;2023-02-10T15:32:19;26.27;;;21.30;;
64799;SDS011;51233;51.982;4.594;2023-02-10T15:35:20;28.00;;;18.40;;
64799;SDS011;51233;51.982;4.594;2023-02-10T15:38:20;22.70;;;18.40;;
64799;SDS011;51233;51.982;4.594;2023-02-10T15:44:41;21.05;;;14.45;;
64799;SDS011;51233;51.982;4.594;2023-02-10T15:47:43;19.42;;;14.73;;
64799;SDS011;51233;51.982;4.594;2023-02-10T15:50:43;20.33;;;15.60;;
64799;SDS011;51233;51.982;4.594;2023-02-10T15:53:43;17.30;;;11.50;;
64799;SDS011;51233;51.982;4.594;2023-02-10T15:56:53;18.88;;;13.55;;
64799;SDS011;51233;51.982;4.594;2023-02-10T15:59:54;18.90;;;12.38;;
64799;SDS011;51233;51.982;4.594;2023-02-10T16:02:54;20.70;;;10.80;;
64799;SDS011;51233;51.982;4.594;2023-02-10T16:05:55;18.70;;;11.00;;
64799;SDS011;51233;51.982;4.594;2023-02-10T16:09:01;17.40;;;11.45;;
64799;SDS011;51233;51.982;4.594;2023-02-10T16:12:01;16.67;;;9.77;;
64799;SDS011;51233;51.982;4.594;2023-02-10T16:15:01;14.47;;;8.57;;
64799;SDS011;51233;51.982;4.594;2023-02-10T16:18:02;13.67;;;8.07;;
64799;SDS011;51233;51.982;4.594;2023-02-10T16:21:02;14.55;;;7.57;;
64799;SDS011;51233;51.982;4.594;2023-02-10T16:24:05;11.73;;;7.55;;
64799;SDS011;51233;51.982;4.594;2023-02-10T16:27:09;13.68;;;8.75;;
64799;SDS011;51233;51.982;4.594;2023-02-10T16:30:13;11.65;;;8.90;;
64799;SDS011;51233;51.982;4.594;2023-02-10T16:33:14;13.38;;;7.78;;
64799;SDS011;51233;51.982;4.594;2023-02-10T16:36:17;12.52;;;9.60;;
64799;SDS011;51233;51.982;4.594;2023-02-10T16:39:20;13.80;;;9.55;;
64799;SDS011;51233;51.982;4.594;2023-02-10T16:42:24;15.75;;;10.63;;
64799;SDS011;51233;51.982;4.594;2023-02-10T16:45:25;11.57;;;7.85;;
64799;SDS011;51233;51.982;4.594;2023-02-10T16:48:26;14.57;;;9.90;;
64799;SDS011;51233;51.982;4.594;2023-02-10T16:51:49;14.23;;;8.98;;
64799;SDS011;51233;51.982;4.594;2023-02-10T16:54:55;12.93;;;8.80;;
64799;SDS011;51233;51.982;4.594;2023-02-10T16:57:55;15.10;;;8.80;;
64799;SDS011;51233;51.982;4.594;2023-02-10T17:00:56;17.52;;;8.98;;
64799;SDS011;51233;51.982;4.594;2023-02-10T17:03:56;12.52;;;8.90;;
64799;SDS011;51233;51.982;4.594;2023-02-10T17:06:57;16.88;;;8.43;;
64799;SDS011;51233;51.982;4.594;2023-02-10T17:09:57;12.75;;;7.30;;
64799;SDS011;51233;51.982;4.594;2023-02-10T17:12:58;13.95;;;7.57;;
64799;SDS011;51233;51.982;4.594;2023-02-10T17:15:58;15.33;;;8.07;;
64799;SDS011;51233;51.982;4.594;2023-02-10T17:18:58;12.70;;;6.75;;
64799;SDS011;51233;51.982;4.594;2023-02-10T17:21:59;13.13;;;6.97;;
64799;SDS011;51233;51.982;4.594;2023-02-10T17:25:00;14.95;;;7.10;;
64799;SDS011;51233;51.982;4.594;2023-02-10T17:28:00;12.32;;;6.57;;
64799;SDS011;51233;51.982;4.594;2023-02-10T17:31:03;10.38;;;5.82;;
64799;SDS011;51233;51.982;4.594;2023-02-10T17:34:04;10.23;;;5.63;;
64799;SDS011;51233;51.982;4.594;2023-02-10T17:37:04;13.30;;;5.70;;
64799;SDS011;51233;51.982;4.594;2023-02-10T17:40:13;11.15;;;5.40;;
64799;SDS011;51233;51.982;4.594;2023-02-10T17:43:27;10.50;;;4.50;;
64799;SDS011;51233;51.982;4.594;2023-02-10T17:46:27;9.60;;;4.37;;
64799;SDS011;51233;51.982;4.594;2023-02-10T17:49:29;10.63;;;4.18;;
64799;SDS011;51233;51.982;4.594;2023-02-10T17:52:29;6.75;;;3.28;;
64799;SDS011;51233;51.982;4.594;2023-02-10T17:55:29;8.38;;;3.97;;
64799;SDS011;51233;51.982;4.594;2023-02-10T17:58:30;7.15;;;3.30;;
64799;SDS011;51233;51.982;4.594;2023-02-10T18:01:30;9.25;;;3.53;;
64799;SDS011;51233;51.982;4.594;2023-02-10T18:04:36;8.70;;;3.40;;
64799;SDS011;51233;51.982;4.594;2023-02-10T18:07:38;9.63;;;3.42;;
64799;SDS011;51233;51.982;4.594;2023-02-10T18:10:39;9.87;;;3.17;;
64799;SDS011;51233;51.982;4.594;2023-02-10T18:13:39;7.30;;;3.22;;
64799;SDS011;51233;51.982;4.594;2023-02-10T18:16:39;13.48;;;3.88;;
64799;SDS011;51233;51.982;4.594;2023-02-10T18:19:42;15.32;;;3.70;;
64799;SDS011;51233;51.982;4.594;2023-02-10T18:22:43;7.80;;;3.92;;
64799;SDS011;51233;51.982;4.594;2023-02-10T18:25:43;11.57;;;4.13;;
64799;SDS011;51233;51.982;4.594;2023-02-10T18:28:43;7.45;;;4.07;;
64799;SDS011;51233;51.982;4.594;2023-02-10T18:31:43;10.63;;;3.60;;
64799;SDS011;51233;51.982;4.594;2023-02-10T18:34:46;9.32;;;2.90;;
64799;SDS011;51233;51.982;4.594;2023-02-10T18:37:53;7.78;;;2.78;;
64799;SDS011;51233;51.982;4.594;2023-02-10T18:40:57;11.50;;;3.10;;
64799;SDS011;51233;51.982;4.594;2023-02-10T18:43:57;5.65;;;2.85;;
64799;SDS011;51233;51.982;4.594;2023-02-10T18:46:57;9.93;;;2.88;;
64799;SDS011;51233;51.982;4.594;2023-02-10T18:49:58;10.23;;;3.40;;
64799;SDS011;51233;51.982;4.594;2023-02-10T18:52:58;12.45;;;3.38;;
64799;SDS011;51233;51.982;4.594;2023-02-10T18:55:58;12.57;;;3.83;;
64799;SDS011;51233;51.982;4.594;2023-02-10T18:58:58;9.45;;;3.65;;
64799;SDS011;51233;51.982;4.594;2023-02-10T19:01:58;10.45;;;3.40;;
64799;SDS011;51233;51.982;4.594;2023-02-10T19:04:59;12.07;;;3.78;;
64799;SDS011;51233;51.982;4.594;2023-02-10T19:07:59;14.90;;;4.03;;
64799;SDS011;51233;51.982;4.594;2023-02-10T19:11:00;11.10;;;3.85;;
64799;SDS011;51233;51.982;4.594;2023-02-10T19:14:00;13.80;;;3.72;;
64799;SDS011;51233;51.982;4.594;2023-02-10T19:17:00;13.15;;;3.85;;
64799;SDS011;51233;51.982;4.594;2023-02-10T19:20:01;10.07;;;3.85;;
64799;SDS011;51233;51.982;4.594;2023-02-10T19:23:01;9.77;;;3.90;;
64799;SDS011;51233;51.982;4.594;2023-02-10T19:26:01;15.70;;;3.95;;
64799;SDS011;51233;51.982;4.594;2023-02-10T19:29:01;17.75;;;4.28;;
64799;SDS011;51233;51.982;4.594;2023-02-10T19:32:03;10.82;;;4.10;;